createdAt,value
2022-08-09T00:02:28.053Z,56.69
2022-08-09T00:05:02.961Z,55.79
2022-08-09T00:07:44.661Z,55.92
2022-08-09T00:10:17.788Z,56.74
2022-08-09T00:12:45.566Z,58.64
2022-08-09T00:15:14.635Z,57.10
2022-08-09T00:18:09.397Z,56.65
2022-08-09T00:20:27.465Z,57.69
2022-08-09T00:22:57.985Z,57.87
2022-08-09T00:25:34.852Z,57.51
2022-08-09T00:28:03.964Z,57.87
2022-08-09T00:30:30.570Z,58.47
2022-08-09T00:32:57.295Z,57.92
2022-08-09T00:35:24.285Z,58.39
2022-08-09T00:37:50.617Z,56.77
2022-08-09T00:40:19.823Z,56.46
2022-08-09T00:44:15.930Z,57.86
2022-08-09T00:45:34.879Z,57.08
2022-08-09T00:48:03.523Z,57.33
2022-08-09T00:50:30.034Z,57.21
2022-08-09T00:52:56.686Z,57.47
2022-08-09T00:55:54.200Z,57.06
2022-08-09T00:58:09.760Z,58.81
2022-08-09T01:00:43.472Z,57.81
2022-08-09T01:03:15.080Z,58.14
2022-08-09T01:05:53.778Z,58.41
2022-08-09T01:08:34.738Z,59.38
2022-08-09T01:11:08.837Z,58.82
2022-08-09T01:13:58.664Z,58.52
2022-08-09T01:16:40.977Z,60.25
2022-08-09T01:20:01.735Z,59.13
2022-08-09T01:23:03.392Z,59.68
2022-08-09T01:25:48.695Z,60.86
2022-08-09T01:28:19.357Z,61.33
2022-08-09T01:30:51.805Z,60.85
2022-08-09T01:33:21.242Z,61.60
2022-08-09T01:36:01.642Z,60.99
2022-08-09T01:38:30.598Z,59.95
2022-08-09T01:41:05.828Z,59.21
2022-08-09T01:43:42.265Z,59.84
2022-08-09T01:46:32.398Z,60.16
2022-08-09T01:49:12.734Z,61.94
2022-08-09T01:51:54.349Z,60.75
2022-08-09T01:54:33.257Z,60.74
2022-08-09T01:57:09.394Z,60.41
2022-08-09T01:59:40.826Z,60.93
2022-08-09T02:02:20.437Z,60.88
2022-08-09T02:04:50.179Z,60.95
2022-08-09T02:08:40.657Z,60.85
2022-08-09T02:10:14.173Z,61.11
2022-08-09T02:12:43.443Z,60.05
2022-08-09T02:15:15.408Z,60.39
2022-08-09T02:18:00.321Z,61.66
2022-08-09T02:20:34.030Z,61.54
2022-08-09T02:23:19.972Z,61.27
2022-08-09T02:25:55.631Z,61.48
2022-08-09T02:28:33.831Z,60.39
2022-08-09T02:31:05.961Z,61.10
2022-08-09T02:33:38.057Z,60.98
2022-08-09T02:36:31.489Z,61.10
2022-08-09T02:39:04.376Z,61.13
2022-08-09T02:41:48.194Z,63.27
2022-08-09T02:44:29.399Z,60.87
2022-08-09T02:46:58.961Z,62.43
2022-08-09T02:49:38.795Z,64.03
2022-08-09T02:52:11.709Z,63.15
2022-08-09T02:54:54.599Z,63.45
2022-08-09T02:57:25.264Z,63.62
2022-08-09T03:00:20.802Z,62.84
2022-08-09T03:02:58.758Z,64.46
2022-08-09T03:05:28.462Z,64.75
2022-08-09T03:07:55.753Z,65.33
2022-08-09T03:10:23.927Z,65.99
2022-08-09T03:12:52.108Z,64.71
2022-08-09T03:15:19.283Z,64.07
2022-08-09T03:17:47.540Z,63.25
2022-08-09T03:20:25.892Z,63.10
2022-08-09T03:23:00.342Z,63.37
2022-08-09T03:26:03.139Z,63.04
2022-08-09T03:28:30.820Z,63.89
2022-08-09T03:30:58.847Z,64.08
2022-08-09T03:33:26.962Z,64.54
2022-08-09T03:36:16.761Z,65.50
2022-08-09T03:38:44.736Z,64.21
2022-08-09T03:41:16.584Z,63.53
2022-08-09T03:43:51.734Z,63.71
2022-08-09T03:46:30.748Z,64.10
2022-08-09T03:49:04.330Z,64.48
2022-08-09T03:51:56.820Z,63.47
2022-08-09T03:54:29.765Z,64.24
2022-08-09T03:57:00.045Z,64.58
2022-08-09T03:59:53.649Z,65.27
2022-08-09T04:02:14.203Z,65.03
2022-08-09T04:04:41.037Z,65.32
2022-08-09T04:07:12.046Z,65.13
2022-08-09T04:09:48.075Z,64.86
2022-08-09T04:12:31.077Z,64.52
2022-08-09T04:15:01.852Z,64.66
2022-08-09T04:17:38.126Z,63.80
2022-08-09T04:20:07.007Z,63.79
2022-08-09T04:22:34.011Z,64.27
2022-08-09T04:25:01.568Z,63.96
2022-08-09T04:27:29.461Z,64.24
2022-08-09T04:29:56.447Z,64.97
2022-08-09T04:32:23.533Z,64.33
2022-08-09T04:34:58.438Z,62.79
2022-08-09T04:37:45.827Z,64.12
2022-08-09T04:40:28.857Z,63.73
2022-08-09T04:43:00.709Z,64.71
2022-08-09T04:45:30.312Z,64.28
2022-08-09T04:47:58.787Z,64.02
2022-08-09T04:50:31.914Z,65.76
2022-08-09T04:53:04.254Z,64.86
2022-08-09T04:55:38.944Z,63.98
2022-08-09T04:58:09.476Z,63.67
2022-08-09T05:00:36.718Z,63.52
2022-08-09T05:03:30.558Z,63.18
2022-08-09T05:06:04.235Z,63.31
2022-08-09T05:08:33.719Z,62.43
2022-08-09T05:11:01.080Z,62.40
2022-08-09T05:13:28.978Z,62.15
2022-08-09T05:15:59.852Z,62.35
2022-08-09T05:18:50.799Z,63.36
2022-08-09T05:21:22.960Z,64.22
2022-08-09T05:23:59.720Z,62.49
2022-08-09T05:26:36.371Z,62.99
2022-08-09T05:29:04.266Z,63.59
2022-08-09T05:31:43.998Z,64.49
2022-08-09T05:34:16.481Z,64.76
2022-08-09T05:36:44.085Z,65.01
2022-08-09T05:39:14.600Z,63.67
2022-08-09T05:41:55.678Z,63.50
2022-08-09T05:44:28.911Z,63.76
2022-08-09T05:46:59.386Z,62.21
2022-08-09T05:50:09.091Z,61.32
2022-08-09T05:52:12.056Z,59.96
2022-08-09T05:54:39.878Z,59.70
2022-08-09T05:57:07.653Z,60.23
2022-08-09T05:59:39.358Z,60.70
2022-08-09T06:02:08.758Z,60.60
2022-08-09T06:04:36.569Z,59.81
2022-08-09T06:07:06.040Z,57.80
2022-08-09T06:09:54.039Z,59.46
2022-08-09T06:12:22.214Z,59.77
2022-08-09T06:14:52.879Z,58.72
2022-08-09T06:17:19.263Z,58.73
2022-08-09T06:19:46.306Z,58.38
2022-08-09T06:22:15.752Z,58.95
2022-08-09T06:24:42.144Z,58.51
2022-08-09T06:27:08.824Z,59.69
2022-08-09T06:29:48.313Z,59.48
2022-08-09T06:32:53.497Z,59.37
2022-08-09T06:35:08.440Z,58.79
2022-08-09T06:37:52.891Z,57.96
2022-08-09T06:40:22.018Z,57.21
2022-08-09T06:42:51.135Z,58.12
2022-08-09T06:46:05.513Z,57.30
2022-08-09T06:48:04.410Z,57.93
2022-08-09T06:50:31.925Z,57.64
2022-08-09T06:52:58.480Z,55.27
2022-08-09T06:55:24.949Z,56.61
2022-08-09T06:58:02.867Z,55.82
2022-08-09T07:00:55.908Z,55.10
2022-08-09T07:03:18.068Z,55.43
2022-08-09T07:06:02.368Z,54.23
2022-08-09T07:08:30.730Z,54.19
2022-08-09T07:10:57.106Z,52.98
2022-08-09T07:13:29.404Z,51.81
2022-08-09T07:16:42.563Z,52.26
2022-08-09T07:18:43.031Z,50.33
2022-08-09T07:21:10.041Z,51.26
2022-08-09T07:23:56.680Z,51.15
2022-08-09T07:26:23.336Z,50.32
2022-08-09T07:29:01.236Z,47.56
2022-08-09T07:31:38.305Z,35.70
2022-08-09T07:34:20.270Z,42.52
2022-08-09T07:36:48.994Z,44.54
2022-08-09T07:39:20.362Z,40.24
2022-08-09T07:42:01.826Z,36.48
2022-08-09T07:44:50.995Z,34.65
2022-08-09T07:47:16.233Z,32.36
2022-08-09T07:50:04.893Z,35.36
2022-08-09T07:52:29.696Z,38.13
2022-08-09T07:54:56.768Z,39.87
2022-08-09T07:57:23.933Z,39.17
2022-08-09T08:00:03.630Z,41.96
2022-08-09T08:02:30.603Z,43.36
2022-08-09T08:04:57.525Z,42.92
2022-08-09T08:08:43.766Z,42.52
2022-08-09T08:10:12.285Z,43.33
2022-08-09T08:12:43.131Z,40.02
2022-08-09T08:15:13.788Z,32.23
2022-08-09T08:17:53.507Z,30.68
2022-08-09T08:20:29.263Z,36.23
2022-08-09T08:23:03.735Z,37.12
2022-08-09T08:25:43.800Z,40.86
2022-08-09T08:28:14.230Z,40.80
2022-08-09T08:30:41.536Z,41.64
2022-08-09T08:33:12.129Z,42.64
2022-08-09T08:35:58.165Z,42.76
2022-08-09T08:38:28.275Z,41.94
2022-08-09T08:40:55.844Z,42.12
2022-08-09T08:43:23.398Z,42.98
2022-08-09T08:46:03.678Z,41.25
2022-08-09T08:48:51.818Z,40.71
2022-08-09T08:51:21.166Z,39.92
2022-08-09T08:54:04.427Z,41.63
2022-08-09T08:56:39.632Z,40.04
2022-08-09T08:59:19.974Z,41.12
2022-08-09T09:01:52.886Z,41.40
2022-08-09T09:04:26.957Z,41.23
2022-08-09T09:06:57.536Z,40.70
2022-08-09T09:09:58.581Z,35.47
2022-08-09T09:12:17.843Z,38.06
2022-08-09T09:14:45.397Z,40.31
2022-08-09T09:17:13.000Z,39.54
2022-08-09T09:19:43.490Z,37.37
2022-08-09T09:22:12.572Z,39.58
2022-08-09T09:24:39.786Z,39.49
2022-08-09T09:28:04.617Z,36.29
2022-08-09T09:30:22.723Z,36.88
2022-08-09T09:33:16.194Z,40.82
2022-08-09T09:36:02.130Z,38.71
2022-08-09T09:38:52.683Z,39.90
2022-08-09T09:41:25.047Z,40.72
2022-08-09T09:44:12.221Z,40.18
2022-08-09T09:46:43.085Z,40.94
2022-08-09T09:49:11.817Z,39.66
2022-08-09T09:51:40.710Z,39.92
2022-08-09T09:54:20.292Z,40.14
2022-08-09T09:58:01.486Z,39.50
2022-08-09T09:59:35.788Z,40.49
2022-08-09T10:02:02.402Z,40.21
2022-08-09T10:04:30.948Z,40.04
2022-08-09T10:06:57.827Z,40.42
2022-08-09T10:09:25.230Z,40.35
2022-08-09T10:12:14.734Z,38.43
2022-08-09T10:14:48.385Z,39.68
2022-08-09T10:17:50.376Z,39.49
2022-08-09T10:20:27.053Z,39.23
2022-08-09T10:23:12.256Z,37.87
2022-08-09T10:26:06.727Z,35.81
2022-08-09T10:28:27.599Z,35.62
2022-08-09T10:34:09.585Z,38.02
2022-08-09T10:36:29.216Z,38.71
2022-08-09T10:39:00.137Z,38.48
2022-08-09T10:41:27.944Z,37.64
2022-08-09T10:43:59.156Z,37.71
2022-08-09T10:46:55.599Z,37.01
2022-08-09T10:49:49.909Z,38.41
2022-08-09T10:52:34.057Z,37.81
2022-08-09T10:55:28.148Z,36.86
2022-08-09T10:58:00.152Z,36.62
2022-08-09T11:00:41.594Z,36.69
2022-08-09T11:03:27.339Z,37.25
2022-08-09T11:06:17.818Z,36.40
2022-08-09T11:08:53.029Z,36.70
2022-08-09T11:11:19.900Z,36.88
2022-08-09T11:13:50.021Z,35.42
2022-08-09T11:16:41.084Z,35.46
2022-08-09T11:19:10.140Z,34.93
2022-08-09T11:21:55.287Z,33.82
2022-08-09T11:24:56.839Z,34.56
2022-08-09T11:28:02.855Z,34.18
2022-08-09T11:30:32.452Z,34.92
2022-08-09T11:33:18.660Z,35.32
2022-08-09T11:35:58.414Z,36.61
2022-08-09T11:38:34.924Z,34.96
2022-08-09T11:41:10.561Z,35.21
2022-08-09T11:43:48.472Z,34.39
2022-08-09T11:46:18.458Z,33.80
2022-08-09T11:48:55.396Z,34.30
2022-08-09T11:53:01.069Z,33.50
2022-08-09T11:54:14.405Z,32.09
2022-08-09T11:56:48.626Z,32.96
2022-08-09T11:59:30.628Z,32.97
2022-08-09T12:02:34.071Z,34.57
2022-08-09T12:04:54.719Z,37.12
2022-08-09T12:07:41.173Z,36.96
2022-08-09T12:10:32.089Z,36.67
2022-08-09T12:12:55.990Z,35.86
2022-08-09T12:15:50.310Z,36.25
2022-08-09T12:18:18.295Z,34.87
2022-08-09T12:20:56.658Z,34.64
2022-08-09T12:23:57.837Z,35.08
2022-08-09T12:26:13.041Z,34.55
2022-08-09T12:29:14.548Z,35.17
2022-08-09T12:32:02.278Z,34.59
2022-08-09T12:34:37.860Z,32.65
2022-08-09T12:37:09.430Z,34.09
2022-08-09T12:40:05.689Z,33.44
2022-08-09T12:42:33.062Z,33.54
2022-08-09T12:45:00.365Z,31.56
2022-08-09T12:47:27.960Z,31.34
2022-08-09T12:50:04.919Z,32.61
2022-08-09T12:53:02.633Z,31.74
2022-08-09T12:56:11.831Z,31.76
2022-08-09T12:58:23.998Z,33.24
2022-08-09T13:00:53.967Z,33.80
2022-08-09T13:03:58.853Z,33.82
2022-08-09T13:06:34.602Z,33.36
2022-08-09T13:09:12.650Z,33.61
2022-08-09T13:11:49.668Z,33.28
2022-08-09T13:14:40.941Z,32.01
2022-08-09T13:17:16.100Z,32.27
2022-08-09T13:20:08.396Z,31.88
2022-08-09T13:22:45.718Z,32.17
2022-08-09T13:25:16.492Z,33.06
2022-08-09T13:27:48.814Z,31.89
2022-08-09T13:30:49.945Z,32.97
2022-08-09T13:33:17.284Z,32.83
2022-08-09T13:36:39.457Z,33.19
2022-08-09T13:38:56.175Z,32.37
2022-08-09T13:41:57.837Z,33.32
2022-08-09T13:44:08.204Z,33.16
2022-08-09T13:47:17.862Z,32.91
2022-08-09T13:49:20.881Z,33.10
2022-08-09T13:52:00.696Z,32.32
2022-08-09T13:54:27.623Z,32.55
2022-08-09T13:56:56.734Z,31.94
2022-08-09T13:59:25.416Z,32.03
2022-08-09T14:02:01.777Z,31.09
2022-08-09T14:04:30.189Z,31.57
2022-08-09T14:06:58.723Z,31.95
2022-08-09T14:09:25.521Z,32.16
2022-08-09T14:11:57.848Z,31.82
2022-08-09T14:14:26.334Z,31.80
2022-08-09T14:16:55.604Z,31.32
2022-08-09T14:19:21.950Z,32.00
2022-08-09T14:21:48.897Z,31.37
2022-08-09T14:24:22.482Z,31.96
2022-08-09T14:26:59.080Z,31.87
2022-08-09T14:30:35.287Z,30.50
2022-08-09T14:32:13.174Z,30.34
2022-08-09T14:34:42.680Z,31.29
2022-08-09T14:37:09.478Z,31.55
2022-08-09T14:39:45.165Z,30.91
2022-08-09T14:42:12.846Z,31.10
2022-08-09T14:46:45.958Z,30.62
2022-08-09T14:47:58.661Z,31.23
2022-08-09T14:50:27.224Z,31.25
2022-08-09T14:52:53.597Z,30.69
2022-08-09T14:55:21.209Z,30.85
2022-08-09T14:57:48.893Z,30.45
2022-08-09T15:00:16.021Z,30.37
2022-08-09T15:02:42.372Z,29.83
2022-08-09T15:05:15.242Z,30.95
2022-08-09T15:07:43.726Z,30.41
2022-08-09T15:10:14.235Z,30.82
2022-08-09T15:12:44.850Z,31.16
2022-08-09T15:15:12.003Z,31.20
2022-08-09T15:17:41.490Z,31.23
2022-08-09T15:20:12.037Z,31.10
2022-08-09T15:23:02.951Z,31.20
2022-08-09T15:25:41.925Z,30.78
2022-08-09T15:28:26.077Z,30.39
2022-08-09T15:31:01.963Z,30.41
2022-08-09T15:34:17.390Z,29.88
2022-08-09T15:36:28.850Z,30.20
2022-08-09T15:39:00.119Z,30.61
2022-08-09T15:41:31.405Z,30.72
2022-08-09T15:44:02.083Z,30.17
2022-08-09T15:46:33.125Z,30.31
2022-08-09T15:49:21.051Z,29.39
2022-08-09T15:52:04.776Z,30.54
2022-08-09T15:54:49.143Z,30.79
2022-08-09T15:57:18.947Z,30.48
2022-08-09T16:00:00.300Z,31.07
2022-08-09T16:02:37.714Z,31.02
2022-08-09T16:05:06.829Z,30.87
2022-08-09T16:07:38.885Z,31.37
2022-08-09T16:10:07.101Z,30.82
2022-08-09T16:12:41.414Z,31.11
2022-08-09T16:16:11.205Z,30.98
2022-08-09T16:17:56.472Z,31.08
2022-08-09T16:20:30.192Z,30.64
2022-08-09T16:22:56.744Z,30.93
2022-08-09T16:25:36.952Z,31.10
2022-08-09T16:28:07.089Z,31.25
2022-08-09T16:30:33.396Z,31.22
2022-08-09T16:32:59.727Z,31.56
2022-08-09T16:35:56.665Z,31.50
2022-08-09T16:38:14.285Z,31.40
2022-08-09T16:40:44.513Z,31.43
2022-08-09T16:43:12.112Z,31.20
2022-08-09T16:45:44.324Z,31.35
2022-08-09T16:48:42.960Z,31.24
2022-08-09T16:50:59.307Z,31.14
2022-08-09T16:53:36.090Z,31.25
2022-08-09T16:56:09.164Z,30.68
2022-08-09T16:58:39.649Z,31.38
2022-08-09T17:01:08.693Z,32.06
2022-08-09T17:03:35.261Z,31.49
2022-08-09T17:06:08.145Z,31.35
2022-08-09T17:09:02.932Z,31.60
2022-08-09T17:11:41.644Z,32.30
2022-08-09T17:14:26.139Z,32.14
2022-08-09T17:17:01.117Z,31.39
2022-08-09T17:19:46.803Z,31.83
2022-08-09T17:22:24.640Z,31.89
2022-08-09T17:25:03.066Z,32.21
2022-08-09T17:27:30.963Z,31.85
2022-08-09T17:29:57.586Z,31.40
2022-08-09T17:32:35.090Z,31.95
2022-08-09T17:35:11.337Z,31.92
2022-08-09T17:38:11.305Z,31.99
2022-08-09T17:40:29.306Z,32.00
2022-08-09T17:42:59.724Z,32.23
2022-08-09T17:46:01.763Z,32.36
2022-08-09T17:48:16.662Z,32.82
2022-08-09T17:50:55.835Z,32.55
2022-08-09T17:53:23.257Z,32.56
2022-08-09T17:55:55.312Z,32.59
2022-08-09T17:58:27.068Z,32.33
2022-08-09T18:00:55.047Z,32.67
2022-08-09T18:03:25.082Z,32.75
2022-08-09T18:05:53.190Z,32.72
2022-08-09T18:08:21.885Z,32.82
2022-08-09T18:11:02.041Z,32.94
2022-08-09T18:13:39.445Z,33.05
2022-08-09T18:16:29.320Z,33.07
2022-08-09T18:18:59.424Z,32.87
2022-08-09T18:21:31.560Z,32.95
2022-08-09T18:24:10.226Z,32.27
2022-08-09T18:26:46.734Z,32.84
2022-08-09T18:30:35.572Z,33.44
2022-08-09T18:32:04.971Z,33.21
2022-08-09T18:34:31.881Z,33.64
2022-08-09T18:36:58.909Z,33.74
2022-08-09T18:39:25.795Z,33.92
2022-08-09T18:42:00.282Z,34.17
2022-08-09T18:44:27.258Z,34.26
2022-08-09T18:47:07.365Z,34.25
2022-08-09T18:49:41.674Z,34.08
2022-08-09T18:52:11.849Z,33.91
2022-08-09T18:54:39.165Z,34.30
2022-08-09T18:57:12.378Z,34.36
2022-08-09T18:59:51.313Z,34.75
2022-08-09T19:02:20.791Z,34.73
2022-08-09T19:05:03.713Z,34.78
2022-08-09T19:07:51.517Z,34.64
2022-08-09T19:10:28.929Z,34.88
2022-08-09T19:13:19.196Z,34.55
2022-08-09T19:15:49.857Z,35.22
2022-08-09T19:18:17.147Z,35.12
2022-08-09T19:21:00.715Z,34.86
2022-08-09T19:24:39.725Z,35.45
2022-08-09T19:26:15.529Z,34.59
2022-08-09T19:28:42.652Z,35.26
2022-08-09T19:31:16.816Z,35.52
2022-08-09T19:33:43.594Z,35.96
2022-08-09T19:36:11.780Z,36.01
2022-08-09T19:38:39.981Z,35.68
2022-08-09T19:41:06.689Z,35.51
2022-08-09T19:44:00.771Z,36.47
2022-08-09T19:46:35.936Z,36.72
2022-08-09T19:50:07.254Z,36.53
2022-08-09T19:51:56.025Z,36.85
2022-08-09T19:54:24.968Z,36.99
2022-08-09T19:56:52.302Z,37.71
2022-08-09T19:59:57.452Z,37.44
2022-08-09T20:02:15.801Z,37.82
2022-08-09T20:04:54.886Z,38.04
2022-08-09T20:07:22.581Z,38.56
2022-08-09T20:09:49.146Z,38.83
2022-08-09T20:12:27.116Z,41.59
2022-08-09T20:15:02.067Z,40.26
2022-08-09T20:17:48.286Z,40.02
2022-08-09T20:20:14.997Z,41.81
2022-08-09T20:22:42.928Z,40.14
2022-08-09T20:25:12.721Z,41.54
2022-08-09T20:27:39.240Z,42.13
2022-08-09T20:30:07.297Z,43.02
2022-08-09T20:32:36.682Z,40.84
2022-08-09T20:35:03.908Z,41.09
2022-08-09T20:38:18.713Z,40.94
2022-08-09T20:40:24.893Z,41.35
2022-08-09T20:42:59.799Z,42.23
2022-08-09T20:45:56.714Z,41.83
2022-08-09T20:48:20.947Z,42.57
2022-08-09T20:50:51.103Z,43.59
2022-08-09T20:53:35.641Z,44.17
2022-08-09T20:56:09.037Z,42.66
2022-08-09T20:58:38.347Z,42.20
2022-08-09T21:01:32.594Z,42.59
2022-08-09T21:05:48.481Z,42.27
2022-08-09T21:06:43.586Z,42.74
2022-08-09T21:09:16.459Z,42.84
2022-08-09T21:14:33.838Z,43.15
2022-08-09T21:18:21.965Z,43.13
2022-08-09T21:20:18.481Z,43.90
2022-08-09T21:22:42.765Z,44.13
2022-08-09T21:25:14.998Z,44.92
2022-08-09T21:27:51.373Z,43.41
2022-08-09T21:30:22.189Z,44.06
2022-08-09T21:32:49.444Z,43.47
2022-08-09T21:35:16.698Z,44.02
2022-08-09T21:37:58.672Z,43.80
2022-08-09T21:40:30.159Z,43.15
2022-08-09T21:42:58.580Z,43.27
2022-08-09T21:45:25.754Z,43.63
2022-08-09T21:47:52.102Z,43.99
2022-08-09T21:50:22.926Z,43.82
2022-08-09T21:52:58.124Z,43.79
2022-08-09T21:55:24.447Z,44.50
2022-08-09T21:57:59.619Z,44.28
2022-08-09T22:00:32.633Z,43.98
2022-08-09T22:03:02.009Z,43.72
2022-08-09T22:05:35.581Z,43.85
2022-08-09T22:08:05.246Z,44.00
2022-08-09T22:10:31.588Z,43.57
2022-08-09T22:12:59.691Z,43.42
2022-08-09T22:15:34.969Z,43.52
2022-08-09T22:18:01.925Z,43.54
2022-08-09T22:20:31.216Z,43.54
2022-08-09T22:22:58.274Z,43.38
2022-08-09T22:26:05.709Z,44.27
2022-08-09T22:28:11.733Z,44.36
2022-08-09T22:30:39.031Z,44.22
2022-08-09T22:33:17.236Z,45.10
2022-08-09T22:36:02.759Z,45.80
2022-08-09T22:38:29.899Z,45.78
2022-08-09T22:40:57.878Z,47.14
2022-08-09T22:44:01.989Z,47.05
2022-08-09T22:48:15.880Z,48.05
2022-08-09T22:49:01.924Z,48.01
2022-08-09T22:51:38.186Z,48.19
2022-08-09T22:54:05.317Z,48.63
2022-08-09T22:56:34.858Z,48.74
2022-08-09T22:59:06.074Z,48.13
2022-08-09T23:01:50.062Z,47.93
2022-08-09T23:04:17.255Z,48.37
2022-08-09T23:06:43.958Z,49.11
2022-08-09T23:09:11.806Z,48.95
2022-08-09T23:11:38.127Z,48.51
2022-08-09T23:14:10.050Z,50.20
2022-08-09T23:16:43.472Z,49.30
2022-08-09T23:19:09.890Z,49.87
2022-08-09T23:21:37.005Z,49.56
2022-08-09T23:24:07.272Z,50.10
2022-08-09T23:26:38.384Z,51.20
2022-08-09T23:29:07.034Z,50.87
2022-08-09T23:31:33.500Z,51.05
2022-08-09T23:33:59.875Z,51.37
2022-08-09T23:36:26.401Z,51.00
2022-08-09T23:38:52.797Z,51.94
2022-08-09T23:41:29.036Z,52.07
2022-08-09T23:44:00.903Z,52.73
2022-08-09T23:46:28.643Z,53.03
2022-08-09T23:48:55.383Z,52.46
2022-08-09T23:51:21.908Z,52.38
2022-08-09T23:53:50.444Z,53.20
2022-08-09T23:56:16.983Z,52.87
2022-08-09T23:59:03.561Z,53.84
